sensor_id;sensor_type;location;lat;lon;timestamp;temperature;humidity
12460;DHT22;6295;49.452;8.466;2022-10-01T00:03:28;10.10;99.90
12460;DHT22;6295;49.452;8.466;2022-10-01T00:07:36;10.10;99.90
12460;DHT22;6295;49.452;8.466;2022-10-01T00:11:40;10.10;99.90
12460;DHT22;6295;49.452;8.466;2022-10-01T00:15:42;10.20;99.90
12460;DHT22;6295;49.452;8.466;2022-10-01T00:19:45;10.20;99.90
12460;DHT22;6295;49.452;8.466;2022-10-01T00:23:52;10.30;99.90
12460;DHT22;6295;49.452;8.466;2022-10-01T00:27:56;10.40;99.90
12460;DHT22;6295;49.452;8.466;2022-10-01T00:36:02;10.50;99.90
12460;DHT22;6295;49.452;8.466;2022-10-01T00:40:06;10.50;99.90
12460;DHT22;6295;49.452;8.466;2022-10-01T00:44:31;10.50;99.90
12460;DHT22;6295;49.452;8.466;2022-10-01T00:52:40;10.50;99.90
12460;DHT22;6295;49.452;8.466;2022-10-01T00:56:42;10.60;99.90
12460;DHT22;6295;49.452;8.466;2022-10-01T01:00:48;10.60;99.90
12460;DHT22;6295;49.452;8.466;2022-10-01T01:08:54;10.60;99.90
12460;DHT22;6295;49.452;8.466;2022-10-01T01:13:07;10.60;99.90
12460;DHT22;6295;49.452;8.466;2022-10-01T01:17:17;10.70;99.90
12460;DHT22;6295;49.452;8.466;2022-10-01T01:21:28;10.70;99.90
12460;DHT22;6295;49.452;8.466;2022-10-01T01:25:38;10.60;99.90
12460;DHT22;6295;49.452;8.466;2022-10-01T01:29:50;10.70;99.90
12460;DHT22;6295;49.452;8.466;2022-10-01T01:33:55;10.70;99.90
12460;DHT22;6295;49.452;8.466;2022-10-01T01:38:01;10.70;99.90
12460;DHT22;6295;49.452;8.466;2022-10-01T01:42:08;10.70;99.90
12460;DHT22;6295;49.452;8.466;2022-10-01T01:46:13;10.70;99.90
12460;DHT22;6295;49.452;8.466;2022-10-01T01:50:17;10.80;99.90
12460;DHT22;6295;49.452;8.466;2022-10-01T01:54:20;10.80;99.90
12460;DHT22;6295;49.452;8.466;2022-10-01T01:58:23;10.80;99.90
12460;DHT22;6295;49.452;8.466;2022-10-01T02:02:30;10.80;99.90
12460;DHT22;6295;49.452;8.466;2022-10-01T02:06:44;10.80;99.90
12460;DHT22;6295;49.452;8.466;2022-10-01T02:15:21;10.80;99.90
12460;DHT22;6295;49.452;8.466;2022-10-01T02:19:32;10.80;99.90
12460;DHT22;6295;49.452;8.466;2022-10-01T02:23:41;10.80;99.90
12460;DHT22;6295;49.452;8.466;2022-10-01T02:27:49;10.80;99.90
12460;DHT22;6295;49.452;8.466;2022-10-01T02:31:53;10.80;99.90
12460;DHT22;6295;49.452;8.466;2022-10-01T02:35:59;10.80;99.90
12460;DHT22;6295;49.452;8.466;2022-10-01T02:40:05;10.80;99.90
12460;DHT22;6295;49.452;8.466;2022-10-01T02:48:13;10.80;99.90
12460;DHT22;6295;49.452;8.466;2022-10-01T02:52:24;10.80;99.90
12460;DHT22;6295;49.452;8.466;2022-10-01T02:56:29;10.80;99.90
12460;DHT22;6295;49.452;8.466;2022-10-01T03:00:48;10.80;99.90
12460;DHT22;6295;49.452;8.466;2022-10-01T03:04:50;10.90;99.90
12460;DHT22;6295;49.452;8.466;2022-10-01T03:12:57;10.80;99.90
12460;DHT22;6295;49.452;8.466;2022-10-01T03:17:01;10.80;99.90
12460;DHT22;6295;49.452;8.466;2022-10-01T03:21:03;10.80;99.90
12460;DHT22;6295;49.452;8.466;2022-10-01T03:29:09;10.80;99.90
12460;DHT22;6295;49.452;8.466;2022-10-01T03:33:12;10.80;99.90
12460;DHT22;6295;49.452;8.466;2022-10-01T03:37:15;10.80;99.90
12460;DHT22;6295;49.452;8.466;2022-10-01T03:41:18;10.80;99.90
12460;DHT22;6295;49.452;8.466;2022-10-01T03:45:20;10.80;99.90
12460;DHT22;6295;49.452;8.466;2022-10-01T03:49:22;10.80;99.90
12460;DHT22;6295;49.452;8.466;2022-10-01T03:53:26;10.80;99.90
12460;DHT22;6295;49.452;8.466;2022-10-01T03:57:30;10.90;99.90
12460;DHT22;6295;49.452;8.466;2022-10-01T04:01:32;10.90;99.90
12460;DHT22;6295;49.452;8.466;2022-10-01T04:05:34;10.90;99.90
12460;DHT22;6295;49.452;8.466;2022-10-01T04:09:36;10.90;99.90
12460;DHT22;6295;49.452;8.466;2022-10-01T04:17:42;10.90;99.90
12460;DHT22;6295;49.452;8.466;2022-10-01T04:21:44;10.90;99.90
12460;DHT22;6295;49.452;8.466;2022-10-01T04:25:47;10.90;99.90
12460;DHT22;6295;49.452;8.466;2022-10-01T04:29:51;10.90;99.90
12460;DHT22;6295;49.452;8.466;2022-10-01T04:33:54;10.90;99.90
12460;DHT22;6295;49.452;8.466;2022-10-01T04:37:57;10.90;99.90
12460;DHT22;6295;49.452;8.466;2022-10-01T04:50:08;11.00;99.90
12460;DHT22;6295;49.452;8.466;2022-10-01T04:58:14;11.00;99.90
12460;DHT22;6295;49.452;8.466;2022-10-01T05:02:20;11.00;99.90
12460;DHT22;6295;49.452;8.466;2022-10-01T05:10:29;11.00;99.90
12460;DHT22;6295;49.452;8.466;2022-10-01T05:14:33;11.00;99.90
12460;DHT22;6295;49.452;8.466;2022-10-01T05:18:37;11.00;99.90
12460;DHT22;6295;49.452;8.466;2022-10-01T05:22:41;11.00;99.90
12460;DHT22;6295;49.452;8.466;2022-10-01T05:26:43;11.00;99.90
12460;DHT22;6295;49.452;8.466;2022-10-01T05:30:45;11.00;99.90
12460;DHT22;6295;49.452;8.466;2022-10-01T05:34:49;10.90;99.90
12460;DHT22;6295;49.452;8.466;2022-10-01T05:42:54;10.90;99.90
12460;DHT22;6295;49.452;8.466;2022-10-01T05:46:58;10.90;99.90
12460;DHT22;6295;49.452;8.466;2022-10-01T05:51:01;10.90;99.90
12460;DHT22;6295;49.452;8.466;2022-10-01T05:59:10;10.90;99.90
12460;DHT22;6295;49.452;8.466;2022-10-01T06:03:12;10.90;99.90
12460;DHT22;6295;49.452;8.466;2022-10-01T06:07:16;10.90;99.90
12460;DHT22;6295;49.452;8.466;2022-10-01T06:15:22;10.90;99.90
12460;DHT22;6295;49.452;8.466;2022-10-01T06:23:28;10.90;99.90
12460;DHT22;6295;49.452;8.466;2022-10-01T06:27:30;10.90;99.90
12460;DHT22;6295;49.452;8.466;2022-10-01T06:31:32;11.00;99.90
12460;DHT22;6295;49.452;8.466;2022-10-01T06:35:40;11.00;99.90
12460;DHT22;6295;49.452;8.466;2022-10-01T06:39:45;11.00;99.90
12460;DHT22;6295;49.452;8.466;2022-10-01T06:43:48;11.00;99.90
12460;DHT22;6295;49.452;8.466;2022-10-01T06:47:55;11.00;99.90
12460;DHT22;6295;49.452;8.466;2022-10-01T06:51:59;10.90;99.90
12460;DHT22;6295;49.452;8.466;2022-10-01T06:56:20;10.90;99.90
12460;DHT22;6295;49.452;8.466;2022-10-01T07:04:24;10.90;99.90
12460;DHT22;6295;49.452;8.466;2022-10-01T07:08:27;10.90;99.90
12460;DHT22;6295;49.452;8.466;2022-10-01T07:16:36;10.90;99.90
12460;DHT22;6295;49.452;8.466;2022-10-01T07:20:40;10.90;99.90
12460;DHT22;6295;49.452;8.466;2022-10-01T07:28:49;10.90;99.90
12460;DHT22;6295;49.452;8.466;2022-10-01T07:32:53;10.90;99.90
12460;DHT22;6295;49.452;8.466;2022-10-01T07:36:56;11.00;99.90
12460;DHT22;6295;49.452;8.466;2022-10-01T07:41:01;11.00;99.90
12460;DHT22;6295;49.452;8.466;2022-10-01T07:45:07;11.00;99.90
12460;DHT22;6295;49.452;8.466;2022-10-01T07:49:09;11.00;99.90
12460;DHT22;6295;49.452;8.466;2022-10-01T07:53:12;11.00;99.90
12460;DHT22;6295;49.452;8.466;2022-10-01T07:57:14;10.90;99.90
12460;DHT22;6295;49.452;8.466;2022-10-01T08:01:18;11.00;99.90
12460;DHT22;6295;49.452;8.466;2022-10-01T08:13:26;11.00;99.90
12460;DHT22;6295;49.452;8.466;2022-10-01T08:17:29;11.00;99.90
12460;DHT22;6295;49.452;8.466;2022-10-01T08:21:31;11.00;99.90
12460;DHT22;6295;49.452;8.466;2022-10-01T08:29:37;11.00;99.90
12460;DHT22;6295;49.452;8.466;2022-10-01T08:33:43;11.00;99.90
12460;DHT22;6295;49.452;8.466;2022-10-01T08:37:46;11.00;99.90
12460;DHT22;6295;49.452;8.466;2022-10-01T08:41:57;11.00;99.90
12460;DHT22;6295;49.452;8.466;2022-10-01T08:50:17;11.10;99.90
12460;DHT22;6295;49.452;8.466;2022-10-01T08:54:31;11.00;99.90
12460;DHT22;6295;49.452;8.466;2022-10-01T08:58:42;11.00;99.90
12460;DHT22;6295;49.452;8.466;2022-10-01T09:02:47;11.10;99.90
12460;DHT22;6295;49.452;8.466;2022-10-01T09:06:57;11.10;99.90
12460;DHT22;6295;49.452;8.466;2022-10-01T09:11:06;11.10;99.90
12460;DHT22;6295;49.452;8.466;2022-10-01T09:15:19;11.10;99.90
12460;DHT22;6295;49.452;8.466;2022-10-01T09:19:43;11.10;99.90
12460;DHT22;6295;49.452;8.466;2022-10-01T09:24:00;11.20;99.90
12460;DHT22;6295;49.452;8.466;2022-10-01T09:28:12;11.20;99.90
12460;DHT22;6295;49.452;8.466;2022-10-01T09:32:18;11.20;99.90
12460;DHT22;6295;49.452;8.466;2022-10-01T09:36:27;11.20;99.90
12460;DHT22;6295;49.452;8.466;2022-10-01T09:40:39;11.20;99.90
12460;DHT22;6295;49.452;8.466;2022-10-01T09:44:44;11.10;99.90
12460;DHT22;6295;49.452;8.466;2022-10-01T09:52:57;11.20;99.90
12460;DHT22;6295;49.452;8.466;2022-10-01T09:57:06;11.30;99.90
12460;DHT22;6295;49.452;8.466;2022-10-01T10:01:20;11.30;99.90
12460;DHT22;6295;49.452;8.466;2022-10-01T10:05:26;11.30;99.90
12460;DHT22;6295;49.452;8.466;2022-10-01T10:09:30;11.30;99.90
12460;DHT22;6295;49.452;8.466;2022-10-01T10:13:36;11.30;99.90
12460;DHT22;6295;49.452;8.466;2022-10-01T10:17:41;11.40;99.90
12460;DHT22;6295;49.452;8.466;2022-10-01T10:21:50;11.50;99.90
12460;DHT22;6295;49.452;8.466;2022-10-01T10:25:54;11.50;99.90
12460;DHT22;6295;49.452;8.466;2022-10-01T10:30:04;11.50;99.90
12460;DHT22;6295;49.452;8.466;2022-10-01T10:34:13;11.60;99.90
12460;DHT22;6295;49.452;8.466;2022-10-01T10:38:18;11.50;99.90
12460;DHT22;6295;49.452;8.466;2022-10-01T10:46:31;11.70;99.90
12460;DHT22;6295;49.452;8.466;2022-10-01T10:50:38;11.70;99.90
12460;DHT22;6295;49.452;8.466;2022-10-01T10:54:47;11.80;99.90
12460;DHT22;6295;49.452;8.466;2022-10-01T10:58:51;11.80;99.90
12460;DHT22;6295;49.452;8.466;2022-10-01T11:02:59;11.80;99.90
12460;DHT22;6295;49.452;8.466;2022-10-01T11:07:06;11.90;99.90
12460;DHT22;6295;49.452;8.466;2022-10-01T11:11:20;11.90;99.90
12460;DHT22;6295;49.452;8.466;2022-10-01T11:20:06;12.00;99.90
12460;DHT22;6295;49.452;8.466;2022-10-01T11:24:38;12.00;99.90
12460;DHT22;6295;49.452;8.466;2022-10-01T11:33:00;12.20;99.90
12460;DHT22;6295;49.452;8.466;2022-10-01T11:37:22;12.20;99.90
12460;DHT22;6295;49.452;8.466;2022-10-01T11:45:38;12.20;99.90
12460;DHT22;6295;49.452;8.466;2022-10-01T11:49:49;12.20;99.90
12460;DHT22;6295;49.452;8.466;2022-10-01T11:53:59;12.30;99.90
12460;DHT22;6295;49.452;8.466;2022-10-01T11:58:15;12.30;99.90
12460;DHT22;6295;49.452;8.466;2022-10-01T12:02:43;12.30;99.90
12460;DHT22;6295;49.452;8.466;2022-10-01T12:06:53;12.40;99.90
12460;DHT22;6295;49.452;8.466;2022-10-01T12:11:08;12.40;99.90
12460;DHT22;6295;49.452;8.466;2022-10-01T12:15:19;12.50;99.90
12460;DHT22;6295;49.452;8.466;2022-10-01T12:19:27;12.50;99.90
12460;DHT22;6295;49.452;8.466;2022-10-01T12:23:41;12.60;99.90
12460;DHT22;6295;49.452;8.466;2022-10-01T12:32:00;12.60;99.90
12460;DHT22;6295;49.452;8.466;2022-10-01T12:36:10;12.60;99.90
12460;DHT22;6295;49.452;8.466;2022-10-01T12:40:22;12.60;99.90
12460;DHT22;6295;49.452;8.466;2022-10-01T12:44:39;12.60;99.90
12460;DHT22;6295;49.452;8.466;2022-10-01T12:48:54;12.70;99.90
12460;DHT22;6295;49.452;8.466;2022-10-01T12:53:14;12.70;99.90
12460;DHT22;6295;49.452;8.466;2022-10-01T12:57:29;12.80;99.90
12460;DHT22;6295;49.452;8.466;2022-10-01T13:01:48;12.80;99.90
12460;DHT22;6295;49.452;8.466;2022-10-01T13:10:14;12.90;99.90
12460;DHT22;6295;49.452;8.466;2022-10-01T13:18:34;13.00;99.90
12460;DHT22;6295;49.452;8.466;2022-10-01T13:26:52;13.00;99.90
12460;DHT22;6295;49.452;8.466;2022-10-01T13:35:25;13.10;99.90
12460;DHT22;6295;49.452;8.466;2022-10-01T13:39:33;13.20;99.90
12460;DHT22;6295;49.452;8.466;2022-10-01T13:43:36;13.20;99.90
12460;DHT22;6295;49.452;8.466;2022-10-01T13:51:43;13.40;99.90
12460;DHT22;6295;49.452;8.466;2022-10-01T13:55:47;13.30;99.90
12460;DHT22;6295;49.452;8.466;2022-10-01T13:59:58;13.40;99.90
12460;DHT22;6295;49.452;8.466;2022-10-01T14:04:05;13.50;99.90
12460;DHT22;6295;49.452;8.466;2022-10-01T14:08:15;13.50;99.90
12460;DHT22;6295;49.452;8.466;2022-10-01T14:12:20;13.60;99.90
12460;DHT22;6295;49.452;8.466;2022-10-01T14:16:44;13.70;99.90
12460;DHT22;6295;49.452;8.466;2022-10-01T14:20:52;13.70;99.90
12460;DHT22;6295;49.452;8.466;2022-10-01T14:25:22;13.80;99.90
12460;DHT22;6295;49.452;8.466;2022-10-01T14:29:38;13.90;99.90
12460;DHT22;6295;49.452;8.466;2022-10-01T14:34:10;14.00;99.90
12460;DHT22;6295;49.452;8.466;2022-10-01T14:38:19;14.00;99.90
12460;DHT22;6295;49.452;8.466;2022-10-01T14:42:26;14.00;99.90
12460;DHT22;6295;49.452;8.466;2022-10-01T14:50:34;14.00;99.90
12460;DHT22;6295;49.452;8.466;2022-10-01T14:58:47;14.00;99.90
12460;DHT22;6295;49.452;8.466;2022-10-01T15:03:02;14.00;99.90
12460;DHT22;6295;49.452;8.466;2022-10-01T15:07:11;14.00;99.90
12460;DHT22;6295;49.452;8.466;2022-10-01T15:15:23;14.00;99.90
12460;DHT22;6295;49.452;8.466;2022-10-01T15:19:27;14.00;99.90
12460;DHT22;6295;49.452;8.466;2022-10-01T15:27:33;13.90;99.90
12460;DHT22;6295;49.452;8.466;2022-10-01T15:31:37;13.90;99.90
12460;DHT22;6295;49.452;8.466;2022-10-01T15:35:40;13.90;99.90
12460;DHT22;6295;49.452;8.466;2022-10-01T15:39:47;13.90;99.90
12460;DHT22;6295;49.452;8.466;2022-10-01T15:43:51;13.90;99.90
12460;DHT22;6295;49.452;8.466;2022-10-01T15:47:54;13.90;99.90
12460;DHT22;6295;49.452;8.466;2022-10-01T15:52:00;13.90;99.90
12460;DHT22;6295;49.452;8.466;2022-10-01T15:56:22;13.90;99.90
12460;DHT22;6295;49.452;8.466;2022-10-01T16:00:26;13.80;99.90
12460;DHT22;6295;49.452;8.466;2022-10-01T16:04:30;13.80;99.90
12460;DHT22;6295;49.452;8.466;2022-10-01T16:08:35;13.80;99.90
12460;DHT22;6295;49.452;8.466;2022-10-01T16:12:40;13.80;99.90
12460;DHT22;6295;49.452;8.466;2022-10-01T16:16:43;13.70;99.90
12460;DHT22;6295;49.452;8.466;2022-10-01T16:29:03;13.70;99.90
12460;DHT22;6295;49.452;8.466;2022-10-01T16:33:08;13.70;99.90
12460;DHT22;6295;49.452;8.466;2022-10-01T16:37:12;13.60;99.90
12460;DHT22;6295;49.452;8.466;2022-10-01T16:41:19;13.60;99.90
12460;DHT22;6295;49.452;8.466;2022-10-01T16:45:25;13.60;99.90
12460;DHT22;6295;49.452;8.466;2022-10-01T16:53:33;13.60;99.90
12460;DHT22;6295;49.452;8.466;2022-10-01T16:57:36;13.50;99.90
12460;DHT22;6295;49.452;8.466;2022-10-01T17:01:39;13.50;99.90
12460;DHT22;6295;49.452;8.466;2022-10-01T17:05:41;13.50;99.90
12460;DHT22;6295;49.452;8.466;2022-10-01T17:09:46;13.50;99.90
12460;DHT22;6295;49.452;8.466;2022-10-01T17:13:49;13.50;99.90
12460;DHT22;6295;49.452;8.466;2022-10-01T17:17:52;13.40;99.90
12460;DHT22;6295;49.452;8.466;2022-10-01T17:21:54;13.40;99.90
12460;DHT22;6295;49.452;8.466;2022-10-01T17:25:58;13.40;99.90
12460;DHT22;6295;49.452;8.466;2022-10-01T17:30:00;13.40;99.90
12460;DHT22;6295;49.452;8.466;2022-10-01T17:34:03;13.40;99.90
12460;DHT22;6295;49.452;8.466;2022-10-01T17:38:07;13.40;99.90
12460;DHT22;6295;49.452;8.466;2022-10-01T17:42:11;13.30;99.90
12460;DHT22;6295;49.452;8.466;2022-10-01T17:46:14;13.30;99.90
12460;DHT22;6295;49.452;8.466;2022-10-01T17:50:17;13.30;99.90
12460;DHT22;6295;49.452;8.466;2022-10-01T17:54:19;13.30;99.90
12460;DHT22;6295;49.452;8.466;2022-10-01T17:58:23;13.30;99.90
12460;DHT22;6295;49.452;8.466;2022-10-01T18:02:25;13.30;99.90
12460;DHT22;6295;49.452;8.466;2022-10-01T18:06:27;13.30;99.90
12460;DHT22;6295;49.452;8.466;2022-10-01T18:10:31;13.30;99.90
12460;DHT22;6295;49.452;8.466;2022-10-01T18:14:36;13.30;99.90
12460;DHT22;6295;49.452;8.466;2022-10-01T18:26:43;13.30;99.90
12460;DHT22;6295;49.452;8.466;2022-10-01T18:30:49;13.30;99.90
12460;DHT22;6295;49.452;8.466;2022-10-01T18:34:53;13.30;99.90
12460;DHT22;6295;49.452;8.466;2022-10-01T18:39:04;13.30;99.90
12460;DHT22;6295;49.452;8.466;2022-10-01T18:43:12;13.30;99.90
12460;DHT22;6295;49.452;8.466;2022-10-01T18:47:24;13.30;99.90
12460;DHT22;6295;49.452;8.466;2022-10-01T18:51:39;13.30;99.90
12460;DHT22;6295;49.452;8.466;2022-10-01T19:00:08;13.20;99.90
12460;DHT22;6295;49.452;8.466;2022-10-01T19:08:39;13.30;99.90
12460;DHT22;6295;49.452;8.466;2022-10-01T19:16:56;13.30;99.90
12460;DHT22;6295;49.452;8.466;2022-10-01T19:21:11;13.30;99.90
12460;DHT22;6295;49.452;8.466;2022-10-01T19:25:20;13.30;99.90
12460;DHT22;6295;49.452;8.466;2022-10-01T19:29:41;13.30;99.90
12460;DHT22;6295;49.452;8.466;2022-10-01T19:33:50;13.30;99.90
12460;DHT22;6295;49.452;8.466;2022-10-01T19:38:00;13.40;99.90
12460;DHT22;6295;49.452;8.466;2022-10-01T19:46:10;13.30;99.90
12460;DHT22;6295;49.452;8.466;2022-10-01T19:50:19;13.30;99.90
12460;DHT22;6295;49.452;8.466;2022-10-01T19:58:32;13.30;99.90
12460;DHT22;6295;49.452;8.466;2022-10-01T20:06:43;13.30;99.90
12460;DHT22;6295;49.452;8.466;2022-10-01T20:10:52;13.40;99.90
12460;DHT22;6295;49.452;8.466;2022-10-01T20:15:01;13.40;99.90
12460;DHT22;6295;49.452;8.466;2022-10-01T20:19:17;13.40;99.90
12460;DHT22;6295;49.452;8.466;2022-10-01T20:23:35;13.40;99.90
12460;DHT22;6295;49.452;8.466;2022-10-01T20:27:47;13.30;99.90
12460;DHT22;6295;49.452;8.466;2022-10-01T20:36:06;13.40;99.90
12460;DHT22;6295;49.452;8.466;2022-10-01T20:44:28;13.40;99.90
12460;DHT22;6295;49.452;8.466;2022-10-01T20:48:34;13.40;99.90
12460;DHT22;6295;49.452;8.466;2022-10-01T20:52:43;13.40;99.90
12460;DHT22;6295;49.452;8.466;2022-10-01T21:00:58;13.40;99.90
12460;DHT22;6295;49.452;8.466;2022-10-01T21:09:10;13.40;99.90
12460;DHT22;6295;49.452;8.466;2022-10-01T21:13:18;13.40;99.90
12460;DHT22;6295;49.452;8.466;2022-10-01T21:21:42;13.40;99.90
12460;DHT22;6295;49.452;8.466;2022-10-01T21:25:55;13.30;99.90
12460;DHT22;6295;49.452;8.466;2022-10-01T21:30:06;13.30;99.90
12460;DHT22;6295;49.452;8.466;2022-10-01T21:34:15;13.30;99.90
12460;DHT22;6295;49.452;8.466;2022-10-01T21:38:29;13.30;99.90
12460;DHT22;6295;49.452;8.466;2022-10-01T21:46:48;13.30;99.90
12460;DHT22;6295;49.452;8.466;2022-10-01T21:50:55;13.30;99.90
12460;DHT22;6295;49.452;8.466;2022-10-01T21:55:15;13.30;99.90
12460;DHT22;6295;49.452;8.466;2022-10-01T22:03:39;13.20;99.90
12460;DHT22;6295;49.452;8.466;2022-10-01T22:07:53;13.20;99.90
12460;DHT22;6295;49.452;8.466;2022-10-01T22:12:02;13.20;99.90
12460;DHT22;6295;49.452;8.466;2022-10-01T22:24:17;13.20;99.90
12460;DHT22;6295;49.452;8.466;2022-10-01T22:28:23;13.20;99.90
12460;DHT22;6295;49.452;8.466;2022-10-01T22:32:28;13.20;99.90
12460;DHT22;6295;49.452;8.466;2022-10-01T22:36:35;13.20;99.90
12460;DHT22;6295;49.452;8.466;2022-10-01T22:40:44;13.20;99.90
12460;DHT22;6295;49.452;8.466;2022-10-01T22:48:55;13.20;99.90
12460;DHT22;6295;49.452;8.466;2022-10-01T22:53:08;13.20;99.90
12460;DHT22;6295;49.452;8.466;2022-10-01T22:57:32;13.20;99.90
12460;DHT22;6295;49.452;8.466;2022-10-01T23:01:43;13.20;99.90
12460;DHT22;6295;49.452;8.466;2022-10-01T23:05:56;13.20;99.90
12460;DHT22;6295;49.452;8.466;2022-10-01T23:14:17;13.20;99.90
12460;DHT22;6295;49.452;8.466;2022-10-01T23:18:31;13.30;99.90
12460;DHT22;6295;49.452;8.466;2022-10-01T23:22:49;13.20;99.90
12460;DHT22;6295;49.452;8.466;2022-10-01T23:27:01;13.30;99.90
12460;DHT22;6295;49.452;8.466;2022-10-01T23:35:13;13.30;99.90
12460;DHT22;6295;49.452;8.466;2022-10-01T23:39:35;13.30;99.90
12460;DHT22;6295;49.452;8.466;2022-10-01T23:43:43;13.30;99.90
12460;DHT22;6295;49.452;8.466;2022-10-01T23:47:55;13.30;99.90
12460;DHT22;6295;49.452;8.466;2022-10-01T23:52:03;13.30;99.90
12460;DHT22;6295;49.452;8.466;2022-10-01T23:56:10;13.30;99.90
